Time;durP1;ratioP1;P1;durP2;ratioP2;P2;SDS_P1;SDS_P2;PMS_P1;PMS_P2;Temp;Humidity;BMP_temperature;BMP_pressure;BME280_temperature;BME280_humidity;BME280_pressure;Samples;Min_cycle;Max_cycle;Signal;HPM_P1;HPM_P2
2023/07/18 00:00:14;0.00;0.00;0.62;0.00;0.00;0.62;2.67;2.03;;;31.40;22.30;;;;;;2252732;61;20366;-65
2023/07/18 00:03:00;0.00;0.00;0.62;0.00;0.00;0.62;2.23;1.73;;;31.40;22.30;;;;;;2256227;61;20366;-66
2023/07/18 00:05:45;0.00;0.00;0.62;0.00;0.00;0.62;2.60;1.73;;;31.40;22.30;;;;;;2255955;61;20783;-66
2023/07/18 00:08:30;0.00;0.00;0.62;0.00;0.00;0.62;2.23;1.80;;;31.30;22.20;;;;;;2255896;61;20565;-67
2023/07/18 00:11:15;0.00;0.00;0.62;0.00;0.00;0.62;4.00;2.03;;;31.40;22.30;;;;;;2256000;61;20369;-66
2023/07/18 00:14:00;0.00;0.00;0.62;0.00;0.00;0.62;2.57;1.83;;;31.30;22.20;;;;;;2255965;61;21086;-66
2023/07/18 00:16:45;0.00;0.00;0.62;0.00;0.00;0.62;2.23;1.53;;;31.40;22.30;;;;;;2256252;61;20424;-65
2023/07/18 00:19:31;0.00;0.00;0.62;0.00;0.00;0.62;2.00;1.37;;;31.30;22.30;;;;;;2255190;61;20381;-70
2023/07/18 00:22:15;0.00;0.00;0.62;0.00;0.00;0.62;2.47;1.30;;;31.30;22.30;;;;;;2255850;61;20367;-65
2023/07/18 00:25:00;0.00;0.00;0.62;0.00;0.00;0.62;2.37;1.53;;;31.30;22.30;;;;;;2252329;61;20446;-65
2023/07/18 00:27:45;0.00;0.00;0.62;0.00;0.00;0.62;2.90;2.03;;;31.30;22.30;;;;;;2251846;61;20688;-65
2023/07/18 00:30:30;0.00;0.00;0.62;0.00;0.00;0.62;2.33;1.87;;;31.30;22.30;;;;;;2251805;61;20358;-65
2023/07/18 00:33:15;0.00;0.00;0.62;0.00;0.00;0.62;2.00;1.30;;;31.30;22.30;;;;;;2248859;61;20374;-65
2023/07/18 00:36:03;0.00;0.00;0.62;0.00;0.00;0.62;3.07;1.83;;;31.30;22.30;;;;;;2248686;61;20387;-65
2023/07/18 00:38:48;0.00;0.00;0.62;0.00;0.00;0.62;2.33;1.60;;;31.30;22.30;;;;;;2248612;61;20514;-67
2023/07/18 00:41:33;0.00;0.00;0.62;0.00;0.00;0.62;2.07;1.53;;;31.30;22.30;;;;;;2252117;61;20406;-65
2023/07/18 00:44:19;0.00;0.00;0.62;0.00;0.00;0.62;3.03;2.07;;;31.30;22.30;;;;;;2248764;61;20402;-65
2023/07/18 00:47:05;0.00;0.00;0.62;0.00;0.00;0.62;2.23;1.70;;;31.30;22.30;;;;;;2251967;61;20918;-66
2023/07/18 00:49:51;0.00;0.00;0.62;0.00;0.00;0.62;2.70;1.57;;;31.30;22.30;;;;;;2248175;61;20886;-65
2023/07/18 00:52:43;0.00;0.00;0.62;0.00;0.00;0.62;2.50;1.90;;;31.30;22.40;;;;;;2249161;61;20803;-66
2023/07/18 00:55:28;0.00;0.00;0.62;0.00;0.00;0.62;1.93;1.50;;;31.30;22.40;;;;;;2248714;61;20923;-65
2023/07/18 00:58:12;0.00;0.00;0.62;0.00;0.00;0.62;2.43;1.80;;;31.30;22.40;;;;;;2248547;61;20464;-66
2023/07/18 01:00:58;0.00;0.00;0.62;0.00;0.00;0.62;3.20;1.90;;;31.20;22.90;;;;;;2252156;61;20594;-66
2023/07/18 01:03:44;0.00;0.00;0.62;0.00;0.00;0.62;2.07;1.77;;;31.20;22.30;;;;;;2251982;61;20374;-66
2023/07/18 01:06:28;0.00;0.00;0.62;0.00;0.00;0.62;2.37;1.50;;;31.20;22.30;;;;;;2251683;61;20425;-66
2023/07/18 01:09:15;0.00;0.00;0.62;0.00;0.00;0.62;2.20;1.43;;;31.20;22.30;;;;;;2248447;61;20359;-66
2023/07/18 01:11:59;0.00;0.00;0.62;0.00;0.00;0.62;1.70;1.30;;;31.20;22.30;;;;;;2251673;61;20459;-66
2023/07/18 01:14:44;0.00;0.00;0.62;0.00;0.00;0.62;2.97;1.70;;;31.20;22.30;;;;;;2248788;61;20387;-66
2023/07/18 01:17:29;0.00;0.00;0.62;0.00;0.00;0.62;2.70;1.73;;;31.20;22.40;;;;;;2251865;61;20911;-66
2023/07/18 01:20:18;0.00;0.00;0.62;0.00;0.00;0.62;2.20;1.40;;;31.20;22.30;;;;;;2251394;61;20410;-66
2023/07/18 01:23:04;0.00;0.00;0.62;0.00;0.00;0.62;2.30;1.90;;;31.20;22.30;;;;;;2252057;61;20367;-65
2023/07/18 01:25:49;0.00;0.00;0.62;0.00;0.00;0.62;2.33;1.57;;;31.20;22.40;;;;;;2252082;61;20413;-66
2023/07/18 01:28:34;0.00;0.00;0.62;0.00;0.00;0.62;2.40;1.63;;;31.20;22.40;;;;;;2251347;61;20422;-66
2023/07/18 01:31:19;0.00;0.00;0.62;0.00;0.00;0.62;2.27;1.67;;;31.20;22.40;;;;;;2252104;61;20421;-66
2023/07/18 01:34:05;0.00;0.00;0.62;0.00;0.00;0.62;2.37;1.63;;;31.20;22.40;;;;;;2248431;61;20414;-66
2023/07/18 01:36:50;0.00;0.00;0.62;0.00;0.00;0.62;2.43;1.90;;;31.10;22.40;;;;;;2249541;61;20386;-65
2023/07/18 01:39:36;0.00;0.00;0.62;0.00;0.00;0.62;3.10;1.63;;;31.20;22.40;;;;;;2248833;61;20951;-65
2023/07/18 01:42:21;0.00;0.00;0.62;0.00;0.00;0.62;2.40;1.60;;;31.10;22.30;;;;;;2249276;61;20501;-64
2023/07/18 01:45:07;0.00;0.00;0.62;0.00;0.00;0.62;2.80;1.87;;;31.10;22.40;;;;;;2249438;61;20403;-65
2023/07/18 01:47:52;0.00;0.00;0.62;0.00;0.00;0.62;2.10;1.63;;;31.10;22.40;;;;;;2249278;61;20382;-66
2023/07/18 01:50:37;0.00;0.00;0.62;0.00;0.00;0.62;3.10;1.93;;;31.10;22.90;;;;;;2252077;61;20406;-65
2023/07/18 01:53:21;0.00;0.00;0.62;0.00;0.00;0.62;2.10;1.30;;;31.10;22.40;;;;;;2252640;61;20454;-65
2023/07/18 01:56:07;0.00;0.00;0.62;0.00;0.00;0.62;2.20;1.60;;;31.10;22.40;;;;;;2252213;61;20391;-65
2023/07/18 01:58:52;0.00;0.00;0.62;0.00;0.00;0.62;2.80;2.00;;;31.10;22.40;;;;;;2249106;61;20926;-68
2023/07/18 02:01:37;0.00;0.00;0.62;0.00;0.00;0.62;2.17;1.33;;;31.10;22.40;;;;;;2249194;61;20463;-65
2023/07/18 02:04:23;0.00;0.00;0.62;0.00;0.00;0.62;3.60;2.00;;;31.10;22.40;;;;;;2249245;61;20513;-65
2023/07/18 02:07:08;0.00;0.00;0.62;0.00;0.00;0.62;2.83;1.60;;;31.10;22.40;;;;;;2249611;61;20946;-65
2023/07/18 02:09:53;0.00;0.00;0.62;0.00;0.00;0.62;2.03;1.47;;;31.10;22.40;;;;;;2251869;61;20435;-66
2023/07/18 02:12:39;0.00;0.00;0.62;0.00;0.00;0.62;2.87;1.40;;;31.10;22.40;;;;;;2252257;61;20370;-65
2023/07/18 02:15:24;0.00;0.00;0.62;0.00;0.00;0.62;2.80;1.77;;;31.10;22.40;;;;;;2249492;61;21038;-65
2023/07/18 02:18:10;0.00;0.00;0.62;0.00;0.00;0.62;2.70;1.90;;;31.10;22.40;;;;;;2252094;61;20374;-65
2023/07/18 02:20:55;0.00;0.00;0.62;0.00;0.00;0.62;2.50;1.77;;;31.10;22.40;;;;;;2252634;61;20559;-65
2023/07/18 02:23:39;0.00;0.00;0.62;0.00;0.00;0.62;2.07;1.43;;;31.00;22.40;;;;;;2249097;61;20418;-65
2023/07/18 02:26:26;0.00;0.00;0.62;0.00;0.00;0.62;2.30;1.70;;;31.00;22.40;;;;;;2246506;61;20425;-65
2023/07/18 02:29:13;0.00;0.00;0.62;0.00;0.00;0.62;4.30;1.87;;;31.00;22.90;;;;;;2249047;61;20429;-68
2023/07/18 02:31:57;0.00;0.00;0.62;0.00;0.00;0.62;2.63;1.70;;;31.00;22.40;;;;;;2252462;61;20371;-65
2023/07/18 02:34:43;0.00;0.00;0.62;0.00;0.00;0.62;2.00;1.63;;;31.00;22.40;;;;;;2252209;61;20934;-65
2023/07/18 02:37:30;0.00;0.00;0.62;0.00;0.00;0.62;3.27;1.93;;;31.00;22.40;;;;;;2252652;61;20379;-65
2023/07/18 02:40:17;0.00;0.00;0.62;0.00;0.00;0.62;3.87;1.83;;;31.00;22.40;;;;;;2251924;61;20405;-65
2023/07/18 02:43:02;0.00;0.00;0.62;0.00;0.00;0.62;1.90;1.43;;;31.00;22.40;;;;;;2252424;61;20779;-67
2023/07/18 02:45:48;0.00;0.00;0.62;0.00;0.00;0.62;3.50;1.70;;;31.00;22.40;;;;;;2248928;61;20355;-66
2023/07/18 02:48:33;0.00;0.00;0.62;0.00;0.00;0.62;2.10;1.70;;;31.00;22.40;;;;;;2310247;40;20416;-66
2023/07/18 02:51:18;0.00;0.00;0.62;0.00;0.00;0.62;2.50;1.67;;;31.00;22.40;;;;;;2260492;61;20376;-66
2023/07/18 02:54:02;0.00;0.00;0.62;0.00;0.00;0.62;2.30;1.80;;;31.00;22.40;;;;;;2259896;61;20360;-65
2023/07/18 02:56:48;0.00;0.00;0.62;0.00;0.00;0.62;2.80;1.80;;;31.00;22.40;;;;;;2260148;61;20384;-66
2023/07/18 02:59:33;0.00;0.00;0.62;0.00;0.00;0.62;2.20;1.60;;;31.00;22.40;;;;;;2262736;61;20372;-66
2023/07/18 03:02:20;0.00;0.00;0.62;0.00;0.00;0.62;3.10;1.50;;;31.00;22.40;;;;;;2262280;61;20383;-66
2023/07/18 03:05:07;0.00;0.00;0.62;0.00;0.00;0.62;2.97;1.60;;;30.90;22.40;;;;;;2260575;61;20888;-66
2023/07/18 03:07:54;0.00;0.00;0.62;0.00;0.00;0.62;5.20;1.70;;;31.00;22.40;;;;;;2260172;61;20439;-65
2023/07/18 03:10:40;0.00;0.00;0.62;0.00;0.00;0.62;2.00;1.50;;;30.90;22.40;;;;;;2260080;61;20364;-65
2023/07/18 03:13:27;0.00;0.00;0.62;0.00;0.00;0.62;2.10;1.50;;;30.90;22.40;;;;;;2260630;61;20384;-66
2023/07/18 03:16:12;0.00;0.00;0.62;0.00;0.00;0.62;2.23;1.53;;;30.90;22.40;;;;;;2260086;61;20420;-69
2023/07/18 03:18:59;0.00;0.00;0.62;0.00;0.00;0.62;2.13;1.60;;;30.90;22.40;;;;;;2262072;61;20416;-69
2023/07/18 03:21:44;0.00;0.00;0.62;0.00;0.00;0.62;2.40;1.43;;;30.90;22.40;;;;;;2260330;61;20374;-66
2023/07/18 03:24:29;0.00;0.00;0.62;0.00;0.00;0.62;2.30;1.70;;;30.90;22.40;;;;;;2260248;61;20416;-66
2023/07/18 03:27:13;0.00;0.00;0.62;0.00;0.00;0.62;2.90;1.60;;;30.90;22.40;;;;;;2260003;61;20435;-66
2023/07/18 03:29:59;0.00;0.00;0.62;0.00;0.00;0.62;2.70;1.43;;;30.90;22.40;;;;;;2259819;61;20364;-65
2023/07/18 03:32:43;0.00;0.00;0.62;0.00;0.00;0.62;3.50;1.80;;;30.90;22.40;;;;;;2260135;61;20373;-66
2023/07/18 03:35:30;0.00;0.00;0.62;0.00;0.00;0.62;2.43;1.70;;;30.90;22.40;;;;;;2260224;61;20507;-65
2023/07/18 03:38:16;0.00;0.00;0.62;0.00;0.00;0.62;2.60;1.70;;;30.90;22.40;;;;;;2261782;61;20459;-65
2023/07/18 03:41:03;0.00;0.00;0.62;0.00;0.00;0.62;2.17;1.60;;;30.90;22.90;;;;;;2259443;61;20389;-66
2023/07/18 03:43:47;0.00;0.00;0.62;0.00;0.00;0.62;2.17;1.43;;;30.80;22.30;;;;;;2259801;61;20400;-66
2023/07/18 03:46:32;0.00;0.00;0.62;0.00;0.00;0.62;2.60;1.70;;;30.80;22.40;;;;;;2260010;61;20784;-66
2023/07/18 03:49:16;0.00;0.00;0.62;0.00;0.00;0.62;1.97;1.40;;;30.80;22.40;;;;;;2259385;61;20375;-65
2023/07/18 03:52:03;0.00;0.00;0.62;0.00;0.00;0.62;3.20;1.67;;;30.80;22.40;;;;;;2260343;61;20909;-66
2023/07/18 03:54:48;0.00;0.00;0.62;0.00;0.00;0.62;2.70;1.80;;;30.80;22.40;;;;;;2259979;61;20883;-65
2023/07/18 03:57:33;0.00;0.00;0.62;0.00;0.00;0.62;3.47;1.60;;;30.80;22.40;;;;;;2260099;61;20381;-65
2023/07/18 04:00:19;0.00;0.00;0.62;0.00;0.00;0.62;2.00;1.60;;;30.80;22.40;;;;;;2259891;61;20412;-64
2023/07/18 04:03:04;0.00;0.00;0.62;0.00;0.00;0.62;2.80;1.80;;;30.80;22.40;;;;;;2259891;61;20357;-67
2023/07/18 04:05:51;0.00;0.00;0.62;0.00;0.00;0.62;2.63;1.70;;;30.80;22.40;;;;;;2260442;61;20357;-65
2023/07/18 04:08:37;0.00;0.00;0.62;0.00;0.00;0.62;3.30;1.80;;;30.80;22.40;;;;;;2259687;61;20376;-65
2023/07/18 04:11:22;0.00;0.00;0.62;0.00;0.00;0.62;3.00;1.90;;;30.80;22.40;;;;;;2259995;61;20423;-65
2023/07/18 04:14:06;0.00;0.00;0.62;0.00;0.00;0.62;2.40;1.60;;;30.80;22.40;;;;;;2260174;61;20361;-71
2023/07/18 04:16:52;0.00;0.00;0.62;0.00;0.00;0.62;2.57;1.57;;;30.80;22.40;;;;;;2259705;61;20463;-65
2023/07/18 04:19:36;0.00;0.00;0.62;0.00;0.00;0.62;2.40;1.60;;;30.80;22.40;;;;;;2259748;61;20388;-65
2023/07/18 04:22:21;0.00;0.00;0.62;0.00;0.00;0.62;2.70;1.60;;;30.80;22.40;;;;;;2259939;61;20361;-66
2023/07/18 04:25:08;0.00;0.00;0.62;0.00;0.00;0.62;2.77;1.70;;;30.70;22.40;;;;;;2259884;61;20407;-65
2023/07/18 04:27:53;0.00;0.00;0.62;0.00;0.00;0.62;3.00;1.63;;;30.70;22.40;;;;;;2260368;61;20404;-65
2023/07/18 04:30:38;0.00;0.00;0.62;0.00;0.00;0.62;2.33;1.90;;;30.70;22.40;;;;;;2259772;61;20415;-65
2023/07/18 04:33:23;0.00;0.00;0.62;0.00;0.00;0.62;2.63;1.90;;;30.70;22.40;;;;;;2260018;61;20368;-66
2023/07/18 04:36:08;0.00;0.00;0.62;0.00;0.00;0.62;3.30;2.10;;;30.80;22.40;;;;;;2259972;61;20420;-65
2023/07/18 04:38:53;0.00;0.00;0.62;0.00;0.00;0.62;2.50;1.80;;;30.70;22.40;;;;;;2259373;61;20392;-65
2023/07/18 04:41:39;0.00;0.00;0.62;0.00;0.00;0.62;2.70;2.03;;;30.70;22.40;;;;;;2260070;61;20472;-66
2023/07/18 04:44:23;0.00;0.00;0.62;0.00;0.00;0.62;2.40;1.87;;;30.70;22.90;;;;;;2259936;61;20521;-65
2023/07/18 04:47:08;0.00;0.00;0.62;0.00;0.00;0.62;2.50;1.93;;;30.70;22.40;;;;;;2259867;61;20385;-65
2023/07/18 04:49:53;0.00;0.00;0.62;0.00;0.00;0.62;3.80;2.57;;;30.70;22.40;;;;;;2259420;61;20769;-66
2023/07/18 04:52:38;0.00;0.00;0.62;0.00;0.00;0.62;3.50;2.43;;;30.70;22.40;;;;;;2260194;61;20403;-65
2023/07/18 04:55:22;0.00;0.00;0.62;0.00;0.00;0.62;2.93;2.23;;;30.70;22.40;;;;;;2259792;61;20551;-65
2023/07/18 04:58:09;0.00;0.00;0.62;0.00;0.00;0.62;3.43;2.50;;;30.70;22.40;;;;;;2259652;61;20431;-65
2023/07/18 05:00:55;0.00;0.00;0.62;0.00;0.00;0.62;2.70;2.33;;;30.70;22.40;;;;;;2259398;61;20901;-65
2023/07/18 05:03:40;0.00;0.00;0.62;0.00;0.00;0.62;3.53;2.20;;;30.70;22.50;;;;;;2260011;61;20357;-65
2023/07/18 05:06:24;0.00;0.00;0.62;0.00;0.00;0.62;3.63;1.77;;;30.70;22.40;;;;;;2260151;61;20360;-65
2023/07/18 05:09:09;0.00;0.00;0.62;0.00;0.00;0.62;2.90;2.50;;;30.70;22.40;;;;;;2259707;61;20762;-65
2023/07/18 05:11:53;0.00;0.00;0.62;0.00;0.00;0.62;2.60;2.10;;;30.70;22.40;;;;;;2260981;61;20412;-64
2023/07/18 05:14:40;0.00;0.00;0.62;0.00;0.00;0.62;2.80;2.07;;;30.70;22.50;;;;;;2260518;61;20402;-65
2023/07/18 05:17:25;0.00;0.00;0.62;0.00;0.00;0.62;4.10;2.87;;;30.70;22.40;;;;;;2260162;61;20427;-66
2023/07/18 05:20:11;0.00;0.00;0.62;0.00;0.00;0.62;3.50;2.30;;;30.70;22.50;;;;;;2260161;61;20499;-66
2023/07/18 05:22:56;0.00;0.00;0.62;0.00;0.00;0.62;3.00;2.50;;;30.60;22.40;;;;;;2260431;61;20368;-66
2023/07/18 05:25:40;0.00;0.00;0.62;0.00;0.00;0.62;3.80;2.60;;;30.60;22.40;;;;;;2260457;61;20380;-66
2023/07/18 05:28:25;0.00;0.00;0.62;0.00;0.00;0.62;3.23;2.40;;;30.60;22.40;;;;;;2260335;61;20432;-66
2023/07/18 05:31:11;0.00;0.00;0.62;0.00;0.00;0.62;3.50;2.53;;;30.60;22.40;;;;;;2259961;61;20356;-65
2023/07/18 05:33:55;0.00;0.00;0.62;0.00;0.00;0.62;3.67;2.50;;;30.60;22.40;;;;;;2260813;61;20904;-65
2023/07/18 05:36:40;0.00;0.00;0.62;0.00;0.00;0.62;3.37;2.27;;;30.60;22.40;;;;;;2260385;61;20578;-65
2023/07/18 05:39:25;0.00;0.00;0.62;0.00;0.00;0.62;4.30;2.87;;;30.60;22.40;;;;;;2259590;61;20815;-66
2023/07/18 05:42:10;0.00;0.00;0.62;0.00;0.00;0.62;3.60;2.73;;;30.60;22.40;;;;;;2260557;61;20444;-66
2023/07/18 05:44:55;0.00;0.00;0.62;0.00;0.00;0.62;4.50;3.17;;;30.60;22.50;;;;;;2260607;61;20356;-66
2023/07/18 05:47:41;0.00;0.00;0.62;0.00;0.00;0.62;3.33;2.80;;;30.60;22.40;;;;;;2260388;61;20379;-65
2023/07/18 05:50:25;0.00;0.00;0.62;0.00;0.00;0.62;3.67;2.30;;;30.60;22.40;;;;;;2260579;61;20361;-65
2023/07/18 05:53:10;0.00;0.00;0.62;0.00;0.00;0.62;3.40;2.43;;;30.60;22.40;;;;;;2259861;61;20361;-65
2023/07/18 05:55:55;0.00;0.00;0.62;0.00;0.00;0.62;4.53;2.83;;;30.60;22.50;;;;;;2260632;61;20531;-66
2023/07/18 05:58:40;0.00;0.00;0.62;0.00;0.00;0.62;3.63;2.60;;;30.60;22.50;;;;;;2362900;41;20433;-66
2023/07/18 06:01:25;0.00;0.00;0.62;0.00;0.00;0.62;3.13;2.57;;;30.60;22.50;;;;;;2256538;61;20440;-65
2023/07/18 06:04:11;0.00;0.00;0.62;0.00;0.00;0.62;3.60;2.53;;;30.60;22.50;;;;;;2256689;61;20362;-66
2023/07/18 06:06:56;0.00;0.00;0.62;0.00;0.00;0.62;3.90;2.53;;;30.60;22.50;;;;;;2256521;61;20474;-66
2023/07/18 06:09:42;0.00;0.00;0.62;0.00;0.00;0.62;3.63;2.50;;;30.60;22.50;;;;;;2255456;61;20413;-69
2023/07/18 06:12:27;0.00;0.00;0.62;0.00;0.00;0.62;3.60;2.40;;;30.60;22.50;;;;;;2256123;61;20428;-67
2023/07/18 06:15:11;0.00;0.00;0.62;0.00;0.00;0.62;2.63;1.90;;;30.60;22.50;;;;;;2256094;61;20474;-65
2023/07/18 06:17:56;0.00;0.00;0.62;0.00;0.00;0.62;2.83;2.30;;;30.60;22.50;;;;;;2256388;61;20405;-66
2023/07/18 06:20:43;0.00;0.00;0.62;0.00;0.00;0.62;5.10;2.67;;;30.50;22.50;;;;;;2254573;61;20390;-65
2023/07/18 06:23:29;0.00;0.00;0.62;0.00;0.00;0.62;3.50;2.30;;;30.60;22.50;;;;;;2252309;61;20429;-65
2023/07/18 06:26:14;0.00;0.00;0.62;0.00;0.00;0.62;3.60;2.37;;;30.50;22.50;;;;;;2252548;61;20405;-65
2023/07/18 06:28:59;0.00;0.00;0.62;0.00;0.00;0.62;3.03;2.63;;;30.60;22.50;;;;;;2252080;61;21018;-66
2023/07/18 06:31:44;0.00;0.00;0.62;0.00;0.00;0.62;3.30;2.00;;;30.50;22.50;;;;;;2251864;61;20355;-65
2023/07/18 06:34:33;0.00;0.00;0.62;0.00;0.00;0.62;2.53;2.03;;;30.60;22.50;;;;;;2252666;61;20414;-67
2023/07/18 06:37:19;0.00;0.00;0.62;0.00;0.00;0.62;2.47;2.00;;;30.50;22.50;;;;;;2252325;61;20399;-66
2023/07/18 06:40:05;0.00;0.00;0.62;0.00;0.00;0.62;4.07;2.03;;;30.50;22.50;;;;;;2252087;61;20421;-66
2023/07/18 06:42:51;0.00;0.00;0.62;0.00;0.00;0.62;3.03;2.27;;;30.50;22.50;;;;;;2252205;61;20359;-65
2023/07/18 06:45:35;0.00;0.00;0.62;0.00;0.00;0.62;5.30;2.47;;;30.50;22.50;;;;;;2251666;61;20370;-66
2023/07/18 06:48:20;0.00;0.00;0.62;0.00;0.00;0.62;2.43;2.07;;;30.60;22.60;;;;;;2251990;61;20466;-65
2023/07/18 06:51:06;0.00;0.00;0.62;0.00;0.00;0.62;2.23;1.57;;;30.50;22.50;;;;;;2252442;61;20366;-65
2023/07/18 06:53:53;0.00;0.00;0.62;0.00;0.00;0.62;4.90;2.00;;;30.50;22.50;;;;;;2251772;61;20359;-65
2023/07/18 06:56:39;0.00;0.00;0.62;0.00;0.00;0.62;3.00;1.90;;;30.50;22.60;;;;;;2252484;61;20383;-68
2023/07/18 06:59:24;0.00;0.00;0.62;0.00;0.00;0.62;3.40;2.20;;;30.50;22.50;;;;;;2251240;61;20942;-66
2023/07/18 07:02:10;0.00;0.00;0.62;0.00;0.00;0.62;2.80;1.87;;;30.50;22.60;;;;;;2252273;61;20367;-65
2023/07/18 07:04:54;0.00;0.00;0.62;0.00;0.00;0.62;3.70;1.87;;;30.60;22.60;;;;;;2252241;61;20426;-65
2023/07/18 07:07:39;0.00;0.00;0.62;0.00;0.00;0.62;2.67;1.80;;;30.60;22.60;;;;;;2252175;61;20383;-65
2023/07/18 07:10:25;0.00;0.00;0.62;0.00;0.00;0.62;2.87;2.07;;;30.50;22.60;;;;;;2251938;61;20418;-65
2023/07/18 07:13:10;0.00;0.00;0.62;0.00;0.00;0.62;2.13;1.50;;;30.60;22.60;;;;;;2252309;61;20791;-65
2023/07/18 07:15:55;0.00;0.00;0.62;0.00;0.00;0.62;2.90;1.87;;;30.60;22.60;;;;;;2252158;61;20406;-65
2023/07/18 07:18:40;0.00;0.00;0.62;0.00;0.00;0.62;3.40;1.67;;;30.60;22.60;;;;;;2262810;56;20402;-65
2023/07/18 07:21:25;0.00;0.00;0.62;0.00;0.00;0.62;2.80;1.80;;;30.60;22.60;;;;;;2256231;61;20436;-65
2023/07/18 07:24:09;0.00;0.00;0.62;0.00;0.00;0.62;3.17;1.80;;;30.60;22.70;;;;;;2256468;61;20417;-65
2023/07/18 07:26:55;0.00;0.00;0.62;0.00;0.00;0.62;2.80;1.67;;;30.60;22.70;;;;;;2255990;61;20417;-65
2023/07/18 07:29:40;0.00;0.00;0.62;0.00;0.00;0.62;3.87;2.10;;;30.50;22.60;;;;;;2255853;61;20370;-65
2023/07/18 07:32:25;0.00;0.00;0.62;0.00;0.00;0.62;2.20;1.80;;;30.60;22.70;;;;;;2256218;61;20901;-65
2023/07/18 07:35:10;0.00;0.00;0.62;0.00;0.00;0.62;2.33;1.60;;;30.50;22.60;;;;;;2256265;61;20405;-65
2023/07/18 07:37:55;0.00;0.00;0.62;0.00;0.00;0.62;1.90;1.40;;;30.60;22.70;;;;;;2255980;61;20866;-64
2023/07/18 07:40:39;0.00;0.00;0.62;0.00;0.00;0.62;2.50;1.53;;;30.60;22.70;;;;;;2256195;61;20361;-65
2023/07/18 07:43:25;0.00;0.00;0.62;0.00;0.00;0.62;3.97;2.20;;;30.60;22.70;;;;;;2256015;61;20362;-65
2023/07/18 07:46:10;0.00;0.00;0.62;0.00;0.00;0.62;2.33;1.50;;;30.60;22.70;;;;;;2256347;61;20745;-65
2023/07/18 07:48:55;0.00;0.00;0.62;0.00;0.00;0.62;2.00;1.40;;;30.60;22.70;;;;;;2255913;61;20353;-65
2023/07/18 07:51:39;0.00;0.00;0.62;0.00;0.00;0.62;2.90;1.70;;;30.60;22.70;;;;;;2256095;61;20416;-65
2023/07/18 07:54:24;0.00;0.00;0.62;0.00;0.00;0.62;2.23;1.33;;;30.60;22.70;;;;;;2256434;61;20362;-66
2023/07/18 07:57:08;0.00;0.00;0.62;0.00;0.00;0.62;3.30;1.63;;;30.50;22.70;;;;;;2256323;61;20429;-65
2023/07/18 07:59:55;0.00;0.00;0.62;0.00;0.00;0.62;2.90;2.00;;;30.50;22.70;;;;;;2255735;61;20450;-65
2023/07/18 08:02:40;0.00;0.00;0.62;0.00;0.00;0.62;3.00;1.50;;;30.60;23.30;;;;;;2255771;61;20366;-65
2023/07/18 08:05:25;0.00;0.00;0.62;0.00;0.00;0.62;3.13;2.10;;;30.60;22.70;;;;;;2255622;61;20401;-64
2023/07/18 08:08:10;0.00;0.00;0.62;0.00;0.00;0.62;2.97;1.53;;;30.60;22.80;;;;;;2256263;61;20485;-63
2023/07/18 08:10:55;0.00;0.00;0.62;0.00;0.00;0.62;2.40;1.70;;;30.60;22.80;;;;;;2256320;61;20362;-66
2023/07/18 08:13:39;0.00;0.00;0.62;0.00;0.00;0.62;3.43;1.77;;;30.60;22.80;;;;;;2255907;61;20366;-66
2023/07/18 08:16:26;0.00;0.00;0.62;0.00;0.00;0.62;2.40;1.67;;;30.60;22.80;;;;;;2256101;61;20377;-65
2023/07/18 08:19:11;0.00;0.00;0.62;0.00;0.00;0.62;2.50;1.67;;;30.60;22.80;;;;;;2255621;61;20369;-65
2023/07/18 08:21:56;0.00;0.00;0.62;0.00;0.00;0.62;2.27;1.87;;;30.60;22.80;;;;;;2255791;61;20401;-65
2023/07/18 08:24:41;0.00;0.00;0.62;0.00;0.00;0.62;3.27;1.77;;;30.60;23.30;;;;;;2255818;61;20397;-66
2023/07/18 08:27:26;0.00;0.00;0.62;0.00;0.00;0.62;2.93;1.77;;;30.60;22.80;;;;;;2255690;61;20976;-67
2023/07/18 08:30:12;0.00;0.00;0.62;0.00;0.00;0.62;1.97;1.37;;;30.60;22.80;;;;;;2255756;61;20362;-65
2023/07/18 08:32:58;0.00;0.00;0.62;0.00;0.00;0.62;2.60;1.80;;;30.60;22.90;;;;;;2256215;61;20834;-65
2023/07/18 08:35:43;0.00;0.00;0.62;0.00;0.00;0.62;2.40;1.40;;;30.60;22.80;;;;;;2255775;61;20386;-66
2023/07/18 08:38:27;0.00;0.00;0.62;0.00;0.00;0.62;2.57;1.60;;;30.60;22.80;;;;;;2255843;61;20410;-65
2023/07/18 08:41:13;0.00;0.00;0.62;0.00;0.00;0.62;2.10;1.70;;;30.60;22.90;;;;;;2256129;61;20444;-65
2023/07/18 08:43:59;0.00;0.00;0.62;0.00;0.00;0.62;3.20;2.37;;;30.60;22.90;;;;;;2255003;61;20401;-65
2023/07/18 08:46:46;0.00;0.00;0.62;0.00;0.00;0.62;4.57;1.70;;;30.60;22.90;;;;;;2256344;61;20429;-64
2023/07/18 08:49:35;0.00;0.00;0.62;0.00;0.00;0.62;2.47;1.57;;;30.60;22.90;;;;;;2255573;61;20420;-64
2023/07/18 08:52:20;0.00;0.00;0.62;0.00;0.00;0.62;2.60;1.57;;;30.60;22.90;;;;;;2255914;61;20366;-64
2023/07/18 08:55:06;0.00;0.00;0.62;0.00;0.00;0.62;2.40;1.70;;;30.60;22.90;;;;;;2255765;61;20389;-64
2023/07/18 08:57:51;0.00;0.00;0.62;0.00;0.00;0.62;2.70;1.67;;;30.70;23.00;;;;;;2255869;61;20390;-68
2023/07/18 09:00:36;0.00;0.00;0.62;0.00;0.00;0.62;2.57;1.77;;;30.70;23.00;;;;;;2255990;61;20370;-64
2023/07/18 09:03:20;0.00;0.00;0.62;0.00;0.00;0.62;1.97;1.53;;;30.70;23.00;;;;;;2255973;61;20358;-64
2023/07/18 09:06:18;0.00;0.00;0.62;0.00;0.00;0.62;2.30;1.30;;;30.70;23.00;;;;;;2256173;61;20393;-64
2023/07/18 09:09:03;0.00;0.00;0.62;0.00;0.00;0.62;2.50;1.67;;;30.70;23.00;;;;;;2255700;61;20366;-64
2023/07/18 09:11:55;0.00;0.00;0.62;0.00;0.00;0.62;2.37;1.80;;;30.70;23.00;;;;;;2255995;61;20401;-64
2023/07/18 09:14:40;0.00;0.00;0.62;0.00;0.00;0.62;1.97;1.57;;;30.70;23.00;;;;;;2255545;61;20357;-64
2023/07/18 09:17:25;0.00;0.00;0.62;0.00;0.00;0.62;2.10;1.70;;;30.70;23.00;;;;;;2256013;61;20378;-64
2023/07/18 09:20:16;0.00;0.00;0.62;0.00;0.00;0.62;2.00;1.40;;;30.70;23.00;;;;;;2255387;61;20372;-64
2023/07/18 09:23:04;0.00;0.00;0.62;0.00;0.00;0.62;2.30;1.50;;;30.70;23.10;;;;;;2255706;61;20423;-63
2023/07/18 09:25:48;0.00;0.00;0.62;0.00;0.00;0.62;2.77;1.50;;;30.70;23.00;;;;;;2255809;61;20829;-67
2023/07/18 09:28:33;0.00;0.00;0.62;0.00;0.00;0.62;3.37;1.73;;;30.70;23.00;;;;;;2255155;61;20866;-65
2023/07/18 09:31:20;0.00;0.00;0.62;0.00;0.00;0.62;2.30;1.60;;;30.70;23.10;;;;;;2256259;61;20361;-64
2023/07/18 09:34:12;0.00;0.00;0.62;0.00;0.00;0.62;2.77;1.73;;;30.70;23.10;;;;;;2255771;61;20378;-65
2023/07/18 09:36:59;0.00;0.00;0.62;0.00;0.00;0.62;2.70;1.70;;;30.70;23.10;;;;;;2255852;61;20452;-64
2023/07/18 09:39:46;0.00;0.00;0.62;0.00;0.00;0.62;1.97;1.50;;;30.70;23.60;;;;;;2255811;61;20393;-65
2023/07/18 09:42:32;0.00;0.00;0.62;0.00;0.00;0.62;3.07;1.77;;;30.70;23.10;;;;;;2255458;61;20370;-64
2023/07/18 09:45:17;0.00;0.00;0.62;0.00;0.00;0.62;3.33;1.80;;;30.70;23.10;;;;;;2256181;61;20377;-63
2023/07/18 09:48:05;0.00;0.00;0.62;0.00;0.00;0.62;2.70;1.50;;;30.70;23.10;;;;;;2256095;61;20467;-64
2023/07/18 09:50:51;0.00;0.00;0.62;0.00;0.00;0.62;2.80;1.80;;;30.80;23.20;;;;;;2255734;61;20416;-63
2023/07/18 09:53:37;0.00;0.00;0.62;0.00;0.00;0.62;2.07;1.40;;;30.80;23.20;;;;;;2256084;61;21005;-64
2023/07/18 09:56:26;0.00;0.00;0.62;0.00;0.00;0.62;2.73;1.80;;;30.80;23.30;;;;;;2256553;61;20385;-63
2023/07/18 09:59:11;0.00;0.00;0.62;0.00;0.00;0.62;2.20;1.40;;;30.80;23.30;;;;;;2256079;61;20901;-65
2023/07/18 10:01:56;0.00;0.00;0.62;0.00;0.00;0.62;2.47;1.87;;;30.80;23.30;;;;;;2256708;61;20365;-64
2023/07/18 10:04:43;0.00;0.00;0.62;0.00;0.00;0.62;2.13;1.70;;;30.80;23.30;;;;;;2255946;61;20378;-65
2023/07/18 10:07:29;0.00;0.00;0.62;0.00;0.00;0.62;3.10;1.97;;;30.80;23.30;;;;;;2256566;61;20413;-63
2023/07/18 10:10:14;0.00;0.00;0.62;0.00;0.00;0.62;1.97;1.47;;;30.80;23.40;;;;;;2256121;61;20957;-65
2023/07/18 10:13:01;0.00;0.00;0.62;0.00;0.00;0.62;2.50;1.63;;;30.80;23.40;;;;;;2256320;61;20446;-63
2023/07/18 10:16:19;0.00;0.00;0.62;0.00;0.00;0.62;2.70;1.47;;;30.80;23.40;;;;;;2256777;61;20800;-64
2023/07/18 10:19:17;0.00;0.00;0.62;0.00;0.00;0.62;2.40;1.53;;;30.90;23.50;;;;;;2255985;61;20361;-63
2023/07/18 10:22:02;0.00;0.00;0.62;0.00;0.00;0.62;2.57;1.70;;;30.80;23.50;;;;;;2256404;61;20940;-64
2023/07/18 10:24:49;0.00;0.00;0.62;0.00;0.00;0.62;2.17;1.60;;;30.90;23.50;;;;;;2256402;61;20409;-64
2023/07/18 10:27:39;0.00;0.00;0.62;0.00;0.00;0.62;3.07;1.70;;;30.90;23.50;;;;;;2256515;61;20440;-64
2023/07/18 10:30:38;0.00;0.00;0.62;0.00;0.00;0.62;4.17;1.50;;;30.90;23.50;;;;;;2256434;61;20458;-64
2023/07/18 10:33:23;0.00;0.00;0.62;0.00;0.00;0.62;1.90;1.27;;;30.90;23.60;;;;;;2256387;61;20366;-65
2023/07/18 10:36:25;0.00;0.00;0.62;0.00;0.00;0.62;2.70;1.73;;;30.90;23.60;;;;;;2256239;61;20460;-64
2023/07/18 10:39:14;0.00;0.00;0.62;0.00;0.00;0.62;2.33;1.13;;;30.90;23.60;;;;;;2256161;61;20778;-65
2023/07/18 10:42:08;0.00;0.00;0.62;0.00;0.00;0.62;2.00;1.30;;;30.90;24.10;;;;;;2256350;61;20370;-65
2023/07/18 10:44:58;0.00;0.00;0.62;0.00;0.00;0.62;2.40;1.40;;;30.90;23.60;;;;;;2256490;61;20909;-64
2023/07/18 10:47:44;0.00;0.00;0.62;0.00;0.00;0.62;2.57;1.67;;;30.90;23.60;;;;;;2256410;61;20432;-64
2023/07/18 10:50:29;0.00;0.00;0.62;0.00;0.00;0.62;2.07;1.37;;;30.90;23.60;;;;;;2255454;61;20411;-64
2023/07/18 10:53:17;0.00;0.00;0.62;0.00;0.00;0.62;2.00;1.20;;;30.90;23.60;;;;;;2256635;61;20373;-64